createdAt,value
2023-05-12T00:01:45.022Z,96458.25
2023-05-12T00:04:41.969Z,96457.97
2023-05-12T00:07:38.866Z,96452.72
2023-05-12T00:10:35.757Z,96449.28
2023-05-12T00:13:32.624Z,96447.22
2023-05-12T00:16:29.581Z,96451.84
2023-05-12T00:19:26.797Z,96454.84
2023-05-12T00:22:23.794Z,96446.31
2023-05-12T00:25:20.626Z,96452.72
2023-05-12T00:28:18.761Z,96448.50
2023-05-12T00:31:16.209Z,96449.94
2023-05-12T00:34:13.078Z,96449.66
2023-05-12T00:37:11.049Z,96458.31
2023-05-12T00:40:09.330Z,96450.53
2023-05-12T00:43:06.210Z,96449.81
2023-05-12T00:46:06.218Z,96443.63
2023-05-12T00:49:03.311Z,96440.97
2023-05-12T00:52:00.264Z,96444.13
2023-05-12T00:54:58.542Z,96444.47
2023-05-12T00:57:56.029Z,96444.13
2023-05-12T01:00:52.887Z,96440.16
2023-05-12T01:03:50.009Z,96435.56
2023-05-12T01:07:07.519Z,96430.19
2023-05-12T01:10:04.861Z,96436.16
2023-05-12T01:13:01.682Z,96439.31
2023-05-12T01:16:02.473Z,96430.09
2023-05-12T01:19:00.364Z,96436.03
2023-05-12T01:21:58.178Z,96435.81
2023-05-12T01:25:02.588Z,96438.06
2023-05-12T01:28:00.357Z,96439.44
2023-05-12T01:30:57.330Z,96437.03
2023-05-12T01:33:54.303Z,96445.03
2023-05-12T01:36:51.221Z,96441.19
2023-05-12T01:39:48.238Z,96441.66
2023-05-12T01:42:45.110Z,96430.81
2023-05-12T01:45:41.989Z,96436.66
2023-05-12T01:48:38.852Z,96429.00
2023-05-12T01:51:35.893Z,96435.56
2023-05-12T01:54:32.869Z,96444.44
2023-05-12T01:57:29.735Z,96438.94
2023-05-12T02:00:27.284Z,96439.06
2023-05-12T02:03:24.262Z,96438.94
2023-05-12T02:06:22.294Z,96448.97
2023-05-12T02:09:19.175Z,96437.97
2023-05-12T02:12:16.044Z,96438.13
2023-05-12T02:15:12.986Z,96441.91
2023-05-12T02:18:09.886Z,96445.81
2023-05-12T02:21:07.014Z,96453.41
2023-05-12T02:24:04.105Z,96446.00
2023-05-12T02:27:01.012Z,96450.84
2023-05-12T02:29:57.848Z,96450.81
2023-05-12T02:32:54.724Z,96453.72
2023-05-12T02:35:51.555Z,96448.94
2023-05-12T02:38:48.466Z,96446.75
2023-05-12T02:41:45.401Z,96453.94
2023-05-12T02:44:42.276Z,96449.28
2023-05-12T02:47:39.212Z,96443.63
2023-05-12T02:50:36.168Z,96453.72
2023-05-12T02:53:33.050Z,96454.44
2023-05-12T02:56:31.882Z,96458.78
2023-05-12T02:59:30.699Z,96460.69
2023-05-12T03:02:28.083Z,96456.06
2023-05-12T03:05:25.026Z,96453.91
2023-05-12T03:08:22.258Z,96459.69
2023-05-12T03:11:19.083Z,96464.91
2023-05-12T03:14:16.055Z,96468.53
2023-05-12T03:17:13.040Z,96470.84
2023-05-12T03:20:10.443Z,96468.88
2023-05-12T03:23:07.299Z,96470.34
2023-05-12T03:26:04.248Z,96467.78
2023-05-12T03:29:01.115Z,96465.59
2023-05-12T03:31:58.042Z,96463.22
2023-05-12T03:34:55.175Z,96460.38
2023-05-12T03:37:52.025Z,96454.59
2023-05-12T03:40:52.837Z,96448.72
2023-05-12T03:43:49.896Z,96443.06
2023-05-12T03:46:46.952Z,96446.06
2023-05-12T03:49:44.029Z,96453.03
2023-05-12T03:52:41.450Z,96449.25
2023-05-12T03:55:38.618Z,96457.00
2023-05-12T03:58:35.852Z,96444.88
2023-05-12T04:01:32.746Z,96446.91
2023-05-12T04:04:29.687Z,96454.59
2023-05-12T04:07:26.794Z,96450.16
2023-05-12T04:10:23.631Z,96452.84
2023-05-12T04:13:20.457Z,96457.25
2023-05-12T04:16:17.304Z,96457.31
2023-05-12T04:19:14.183Z,96459.03
2023-05-12T04:22:11.057Z,96458.50
2023-05-12T04:25:08.572Z,96462.41
2023-05-12T04:28:05.698Z,96461.50
2023-05-12T04:31:06.975Z,96466.75
2023-05-12T04:34:03.901Z,96462.44
2023-05-12T04:37:01.099Z,96456.53
2023-05-12T04:39:57.920Z,96460.22
2023-05-12T04:42:55.007Z,96459.44
2023-05-12T04:45:54.194Z,96469.66
2023-05-12T04:48:51.081Z,96477.34
2023-05-12T04:51:48.183Z,96469.44
2023-05-12T04:54:45.054Z,96478.56
2023-05-12T04:57:41.895Z,96481.25
2023-05-12T05:00:38.910Z,96462.16
2023-05-12T05:03:35.999Z,96465.50
2023-05-12T05:06:33.118Z,96467.28
2023-05-12T05:09:30.068Z,96470.53
2023-05-12T05:12:26.982Z,96466.63
2023-05-12T05:15:23.811Z,96476.78
2023-05-12T05:18:23.777Z,96473.22
2023-05-12T05:21:21.190Z,96476.22
2023-05-12T05:24:18.059Z,96476.63
2023-05-12T05:27:14.911Z,96483.31
2023-05-12T05:30:12.113Z,96489.81
2023-05-12T05:33:09.098Z,96484.16
2023-05-12T05:36:06.558Z,96491.06
2023-05-12T05:39:03.456Z,96489.50
2023-05-12T05:42:00.281Z,96487.44
2023-05-12T05:44:57.186Z,96481.47
2023-05-12T05:47:54.172Z,96476.56
2023-05-12T05:50:52.917Z,96477.50
2023-05-12T05:53:49.752Z,96476.09
2023-05-12T05:56:46.611Z,96480.03
2023-05-12T05:59:43.793Z,96484.00
2023-05-12T06:02:41.999Z,96479.25
2023-05-12T06:05:39.164Z,96490.47
2023-05-12T06:08:35.993Z,96496.28
2023-05-12T06:11:32.837Z,96477.66
2023-05-12T06:14:29.719Z,96486.97
2023-05-12T06:17:26.793Z,96480.00
2023-05-12T06:20:23.726Z,96481.88
2023-05-12T06:23:20.547Z,96488.66
2023-05-12T06:26:17.517Z,96496.75
2023-05-12T06:29:15.209Z,96500.34
2023-05-12T06:32:12.065Z,96493.38
2023-05-12T06:35:09.408Z,96494.53
2023-05-12T06:38:06.524Z,96501.25
2023-05-12T06:41:03.580Z,96489.41
2023-05-12T06:44:02.322Z,96493.97
2023-05-12T06:46:59.367Z,96503.47
2023-05-12T06:49:56.199Z,96498.19
2023-05-12T06:52:53.483Z,96505.03
2023-05-12T06:55:51.140Z,96511.41
2023-05-12T06:58:48.251Z,96500.16
2023-05-12T07:01:45.316Z,96503.06
2023-05-12T07:04:42.284Z,96492.47
2023-05-12T07:07:39.112Z,96506.97
2023-05-12T07:10:35.993Z,96499.25
2023-05-12T07:13:44.767Z,96505.78
2023-05-12T07:16:45.357Z,96506.34
2023-05-12T07:19:43.550Z,96514.50
2023-05-12T07:22:40.542Z,96512.59
2023-05-12T07:25:38.005Z,96511.19
2023-05-12T07:28:36.529Z,96513.47
2023-05-12T07:31:34.071Z,96509.16
2023-05-12T07:34:33.871Z,96512.09
2023-05-12T07:37:30.713Z,96509.41
2023-05-12T07:40:27.595Z,96514.81
2023-05-12T07:43:24.730Z,96510.56
2023-05-12T07:46:21.923Z,96505.91
2023-05-12T07:49:18.884Z,96508.94
2023-05-12T07:52:15.712Z,96503.53
2023-05-12T07:55:12.560Z,96506.78
2023-05-12T07:58:09.521Z,96501.31
2023-05-12T08:01:06.942Z,96494.94
2023-05-12T08:04:04.011Z,96497.97
2023-05-12T08:07:01.142Z,96492.56
2023-05-12T08:09:57.995Z,96489.41
2023-05-12T08:12:55.289Z,96492.97
2023-05-12T08:15:52.236Z,96494.19
2023-05-12T08:18:49.175Z,96486.00
2023-05-12T08:21:46.139Z,96477.84
2023-05-12T08:24:43.273Z,96484.69
2023-05-12T08:27:40.184Z,96477.91
2023-05-12T08:30:37.472Z,96481.25
2023-05-12T08:33:37.290Z,96483.63
2023-05-12T08:36:34.332Z,96480.81
2023-05-12T08:39:31.975Z,96472.91
2023-05-12T08:42:44.465Z,96470.97
2023-05-12T08:45:41.742Z,96466.75
2023-05-12T08:48:40.502Z,96463.09
2023-05-12T08:51:38.238Z,96468.09
2023-05-12T08:54:48.569Z,96469.03
2023-05-12T08:57:50.069Z,96462.75
2023-05-12T09:00:47.972Z,96471.19
2023-05-12T09:03:45.350Z,96466.25
2023-05-12T09:06:43.500Z,96463.59
2023-05-12T09:09:44.208Z,96455.63
2023-05-12T09:12:42.740Z,96470.66
2023-05-12T09:15:45.916Z,96462.13
2023-05-12T09:18:55.427Z,96462.41
2023-05-12T09:21:52.664Z,96459.66
2023-05-12T09:24:49.748Z,96467.16
2023-05-12T09:27:49.264Z,96463.00
2023-05-12T09:30:46.202Z,96464.44
2023-05-12T09:33:43.105Z,96464.47
2023-05-12T09:36:40.008Z,96459.56
2023-05-12T09:39:37.171Z,96464.44
2023-05-12T09:42:35.668Z,96470.56
2023-05-12T09:45:37.018Z,96477.09
2023-05-12T09:48:34.057Z,96474.38
2023-05-12T09:51:31.480Z,96477.94
2023-05-12T09:54:30.369Z,96477.59
2023-05-12T09:57:29.777Z,96478.94
2023-05-12T10:00:41.186Z,96474.28
2023-05-12T10:03:48.775Z,96464.91
2023-05-12T10:06:47.407Z,96469.13
2023-05-12T10:09:45.334Z,96478.03
2023-05-12T10:12:42.445Z,96465.53
2023-05-12T10:15:39.682Z,96462.34
2023-05-12T10:18:37.280Z,96468.44
2023-05-12T10:21:36.584Z,96457.69
2023-05-12T10:24:34.558Z,96455.03
2023-05-12T10:27:33.309Z,96464.09
2023-05-12T10:30:31.080Z,96462.31
2023-05-12T10:33:28.464Z,96461.00
2023-05-12T10:36:26.032Z,96453.34
2023-05-12T10:39:29.992Z,96462.28
2023-05-12T10:42:27.044Z,96466.06
2023-05-12T10:45:24.342Z,96461.31
2023-05-12T10:48:21.157Z,96458.25
2023-05-12T10:51:28.808Z,96466.94
2023-05-12T10:54:26.777Z,96465.22
2023-05-12T10:57:23.782Z,96470.56
2023-05-12T11:00:26.777Z,96476.22
2023-05-12T11:03:25.848Z,96472.13
2023-05-12T11:06:24.209Z,96465.59
2023-05-12T11:09:21.892Z,96467.19
2023-05-12T11:12:19.235Z,96470.94
2023-05-12T11:15:18.050Z,96465.63
2023-05-12T11:18:21.804Z,96478.84
2023-05-12T11:21:18.662Z,96478.16
2023-05-12T11:24:16.663Z,96481.81
2023-05-12T11:27:19.873Z,96485.03
2023-05-12T11:30:17.120Z,96481.88
2023-05-12T11:33:14.726Z,96485.97
2023-05-12T11:36:11.571Z,96487.75
2023-05-12T11:39:22.889Z,96486.34
2023-05-12T11:42:21.161Z,96485.06
2023-05-12T11:45:26.045Z,96482.56
2023-05-12T11:48:31.956Z,96494.22
2023-05-12T11:51:28.904Z,96495.19
2023-05-12T11:54:28.046Z,96488.59
2023-05-12T11:57:36.155Z,96485.34
2023-05-12T12:00:35.940Z,96493.31
2023-05-12T12:03:32.910Z,96489.75
2023-05-12T12:06:29.800Z,96494.75
2023-05-12T12:09:52.757Z,96501.47
2023-05-12T12:12:49.634Z,96496.94
2023-05-12T12:15:46.565Z,96496.06
2023-05-12T12:18:43.486Z,96497.19
2023-05-12T12:21:40.547Z,96498.81
2023-05-12T12:24:37.405Z,96496.50
2023-05-12T12:27:34.260Z,96502.28
2023-05-12T12:30:31.452Z,96500.72
2023-05-12T12:33:28.406Z,96505.63
2023-05-12T12:36:25.284Z,96504.59
2023-05-12T12:39:23.229Z,96495.69
2023-05-12T12:42:20.182Z,96496.97
2023-05-12T12:45:19.283Z,96497.09
2023-05-12T12:48:18.458Z,96485.94
2023-05-12T12:51:15.330Z,96488.06
2023-05-12T12:54:12.173Z,96485.28
2023-05-12T12:57:09.185Z,96486.34
2023-05-12T13:00:08.537Z,96486.34
2023-05-12T13:03:06.495Z,96488.47
2023-05-12T13:06:09.140Z,96473.28
2023-05-12T13:09:09.162Z,96483.09
2023-05-12T13:12:06.766Z,96485.91
2023-05-12T13:15:03.968Z,96482.78
2023-05-12T13:18:01.094Z,96478.00
2023-05-12T13:20:58.324Z,96480.09
2023-05-12T13:23:55.257Z,96498.66
2023-05-12T13:26:52.269Z,96490.94
2023-05-12T13:29:49.243Z,96499.06
2023-05-12T13:32:46.887Z,96500.28
2023-05-12T13:35:43.768Z,96496.63
2023-05-12T13:38:40.831Z,96495.81
2023-05-12T13:41:37.727Z,96503.88
2023-05-12T13:44:34.599Z,96509.22
2023-05-12T13:47:31.500Z,96512.53
2023-05-12T13:50:29.825Z,96522.50
2023-05-12T13:53:27.902Z,96524.34
2023-05-12T13:56:26.767Z,96521.72
2023-05-12T13:59:23.704Z,96528.28
2023-05-12T14:02:20.619Z,96517.91
2023-05-12T14:05:17.750Z,96540.06
2023-05-12T14:08:14.663Z,96568.31
2023-05-12T14:11:11.555Z,96570.00
2023-05-12T14:14:08.499Z,96586.75
2023-05-12T14:17:05.446Z,96591.13
2023-05-12T14:20:06.284Z,96583.28
2023-05-12T14:23:03.205Z,96576.16
2023-05-12T14:26:00.129Z,96568.16
2023-05-12T14:28:57.293Z,96570.19
2023-05-12T14:31:54.246Z,96567.50
2023-05-12T14:34:51.137Z,96566.66
2023-05-12T14:37:47.975Z,96567.56
2023-05-12T14:40:46.320Z,96587.59
2023-05-12T14:43:43.231Z,96580.81
2023-05-12T14:46:40.080Z,96591.16
2023-05-12T14:49:37.210Z,96601.59
2023-05-12T14:52:38.304Z,96597.75
2023-05-12T14:55:35.141Z,96583.84
2023-05-12T14:58:32.111Z,96578.00
2023-05-12T15:01:29.077Z,96581.13
2023-05-12T15:04:27.156Z,96576.84
2023-05-12T15:07:23.993Z,96576.16
2023-05-12T15:10:20.867Z,96574.47
2023-05-12T15:13:20.244Z,96574.44
2023-05-12T15:16:17.328Z,96581.31
2023-05-12T15:19:15.290Z,96578.91
2023-05-12T15:22:12.292Z,96579.50
2023-05-12T15:25:09.594Z,96581.97
2023-05-12T15:28:09.670Z,96563.94
2023-05-12T15:31:06.532Z,96556.19
2023-05-12T15:34:03.463Z,96563.00
2023-05-12T15:37:00.446Z,96565.03
2023-05-12T15:39:57.336Z,96555.66
2023-05-12T15:42:54.166Z,96552.34
2023-05-12T15:45:50.990Z,96540.59
2023-05-12T15:48:50.718Z,96542.63
2023-05-12T15:51:47.577Z,96538.22
2023-05-12T15:54:44.410Z,96530.47
2023-05-12T15:57:41.560Z,96547.44
2023-05-12T16:00:38.480Z,96537.16
2023-05-12T16:03:35.362Z,96536.59
2023-05-12T16:06:32.298Z,96533.63
2023-05-12T16:09:29.120Z,96529.53
2023-05-12T16:12:26.156Z,96529.59
2023-05-12T16:15:23.085Z,96530.53
2023-05-12T16:18:20.011Z,96530.53
2023-05-12T16:21:16.878Z,96532.09
2023-05-12T16:24:13.696Z,96529.50
2023-05-12T16:27:10.587Z,96532.66
2023-05-12T16:30:08.584Z,96520.84
2023-05-12T16:33:07.194Z,96516.16
2023-05-12T16:36:04.267Z,96510.31
2023-05-12T16:39:01.103Z,96508.78
2023-05-12T16:41:58.329Z,96510.22
2023-05-12T16:44:55.258Z,96510.91
2023-05-12T16:47:52.331Z,96510.78
2023-05-12T16:50:49.235Z,96504.66
2023-05-12T16:53:46.359Z,96514.06
2023-05-12T16:56:43.202Z,96516.47
2023-05-12T16:59:40.037Z,96526.78
2023-05-12T17:02:37.089Z,96513.47
2023-05-12T17:05:34.076Z,96516.41
2023-05-12T17:08:30.968Z,96517.34
2023-05-12T17:11:27.878Z,96520.63
2023-05-12T17:14:24.760Z,96522.03
2023-05-12T17:17:21.759Z,96527.28
2023-05-12T17:20:18.930Z,96526.09
2023-05-12T17:23:16.615Z,96528.63
2023-05-12T17:26:13.457Z,96536.16
2023-05-12T17:29:10.405Z,96537.03
2023-05-12T17:32:07.480Z,96552.72
2023-05-12T17:35:04.812Z,96546.88
2023-05-12T17:38:01.986Z,96553.44
2023-05-12T17:40:58.913Z,96558.63
2023-05-12T17:43:55.823Z,96565.88
2023-05-12T17:46:52.679Z,96562.19
2023-05-12T17:49:49.538Z,96572.47
2023-05-12T17:52:46.362Z,96571.19
2023-05-12T17:55:43.199Z,96567.66
2023-05-12T17:58:40.063Z,96588.03
2023-05-12T18:01:36.968Z,96577.22
2023-05-12T18:04:34.743Z,96581.13
2023-05-12T18:07:32.143Z,96587.44
2023-05-12T18:10:29.066Z,96596.50
2023-05-12T18:13:25.894Z,96591.25
2023-05-12T18:16:29.182Z,96601.00
2023-05-12T18:19:27.401Z,96597.06
2023-05-12T18:22:24.627Z,96605.44
2023-05-12T18:25:21.599Z,96603.09
2023-05-12T18:28:18.558Z,96601.69
2023-05-12T18:31:19.473Z,96602.03
2023-05-12T18:34:16.727Z,96604.06
2023-05-12T18:37:15.531Z,96607.34
2023-05-12T18:40:12.728Z,96614.59
2023-05-12T18:43:09.584Z,96618.72
2023-05-12T18:46:06.458Z,96623.78
2023-05-12T18:49:03.811Z,96626.44
2023-05-12T18:52:00.753Z,96635.53
2023-05-12T18:54:57.683Z,96641.13
2023-05-12T18:57:54.576Z,96640.63
2023-05-12T19:00:52.651Z,96649.84
2023-05-12T19:03:50.521Z,96647.94
2023-05-12T19:06:47.857Z,96647.94
2023-05-12T19:09:45.158Z,96646.06
2023-05-12T19:12:42.171Z,96652.59
2023-05-12T19:15:39.321Z,96652.69
2023-05-12T19:18:36.183Z,96666.25
2023-05-12T19:21:33.597Z,96675.34
2023-05-12T19:24:30.556Z,96679.66
2023-05-12T19:27:28.137Z,96681.75
2023-05-12T19:30:26.787Z,96695.34
2023-05-12T19:33:23.759Z,96705.19
2023-05-12T19:36:20.611Z,96714.69
2023-05-12T19:39:17.452Z,96727.81
2023-05-12T19:42:14.354Z,96730.63
2023-05-12T19:45:11.632Z,96734.25
2023-05-12T19:48:08.657Z,96723.06
2023-05-12T19:51:05.575Z,96708.41
2023-05-12T19:54:04.749Z,96711.97
2023-05-12T19:57:02.088Z,96708.66
2023-05-12T19:59:58.920Z,96711.00
2023-05-12T20:02:56.074Z,96707.53
2023-05-12T20:05:53.170Z,96725.25
2023-05-12T20:08:49.992Z,96715.47
2023-05-12T20:11:46.829Z,96711.97
2023-05-12T20:14:43.729Z,96700.41
2023-05-12T20:17:40.598Z,96711.00
2023-05-12T20:20:37.486Z,96717.03
2023-05-12T20:23:34.378Z,96720.03
2023-05-12T20:26:31.236Z,96724.47
2023-05-12T20:29:30.210Z,96724.47
2023-05-12T20:32:27.173Z,96732.53
2023-05-12T20:35:24.204Z,96732.22
2023-05-12T20:38:21.232Z,96738.09
2023-05-12T20:41:18.676Z,96732.72
2023-05-12T20:44:15.646Z,96731.25
2023-05-12T20:47:13.086Z,96736.97
2023-05-12T20:50:11.842Z,96732.56
2023-05-12T20:53:08.682Z,96737.13
2023-05-12T20:56:08.214Z,96737.13
2023-05-12T20:59:05.376Z,96734.75
2023-05-12T21:02:02.246Z,96730.47
2023-05-12T21:04:59.205Z,96732.72
2023-05-12T21:07:56.460Z,96733.97
2023-05-12T21:10:54.436Z,96730.81
2023-05-12T21:13:51.273Z,96739.69
2023-05-12T21:16:48.176Z,96752.44
2023-05-12T21:19:45.328Z,96759.38
2023-05-12T21:22:42.718Z,96751.66
2023-05-12T21:25:39.927Z,96763.47
2023-05-12T21:28:37.426Z,96760.81
2023-05-12T21:31:34.288Z,96760.50
2023-05-12T21:34:33.513Z,96754.22
2023-05-12T21:37:30.454Z,96758.63
2023-05-12T21:40:27.301Z,96764.28
2023-05-12T21:43:24.178Z,96760.75
2023-05-12T21:46:21.239Z,96759.19
2023-05-12T21:49:18.220Z,96749.84
2023-05-12T21:52:15.981Z,96752.91
2023-05-12T21:55:12.996Z,96744.53
2023-05-12T21:58:09.831Z,96747.88
2023-05-12T22:01:07.063Z,96757.44
2023-05-12T22:04:05.134Z,96771.59
2023-05-12T22:07:02.167Z,96767.13
2023-05-12T22:09:58.990Z,96781.47
2023-05-12T22:12:56.481Z,96779.47
2023-05-12T22:15:53.595Z,96770.31
2023-05-12T22:18:50.761Z,96767.06
2023-05-12T22:21:47.711Z,96767.06
2023-05-12T22:24:44.934Z,96782.06
2023-05-12T22:27:41.846Z,96781.75
2023-05-12T22:30:38.673Z,96784.28
2023-05-12T22:33:35.726Z,96785.84
2023-05-12T22:36:32.579Z,96787.13
2023-05-12T22:39:29.404Z,96792.34
2023-05-12T22:42:26.278Z,96787.16
2023-05-12T22:45:23.095Z,96786.84
2023-05-12T22:48:20.397Z,96789.09
2023-05-12T22:51:17.247Z,96788.78
2023-05-12T22:54:14.091Z,96787.41
2023-05-12T22:57:11.013Z,96794.06
2023-05-12T23:00:08.775Z,96789.25
2023-05-12T23:03:07.252Z,96788.78
2023-05-12T23:06:04.311Z,96782.53
2023-05-12T23:09:01.472Z,96786.03
2023-05-12T23:11:58.310Z,96782.72
2023-05-12T23:14:55.220Z,96794.25
2023-05-12T23:17:52.317Z,96790.19
2023-05-12T23:20:49.195Z,96790.16
2023-05-12T23:23:46.021Z,96791.13
2023-05-12T23:26:42.860Z,96787.56
2023-05-12T23:29:39.757Z,96790.97
2023-05-12T23:32:36.762Z,96792.28
2023-05-12T23:35:33.800Z,96794.50
2023-05-12T23:38:31.139Z,96788.69
2023-05-12T23:41:31.539Z,96801.19
2023-05-12T23:44:28.476Z,96789.13
2023-05-12T23:47:25.411Z,96781.81
2023-05-12T23:50:22.528Z,96797.19
2023-05-12T23:53:19.811Z,96785.72
2023-05-12T23:56:16.665Z,96790.44
2023-05-12T23:59:13.546Z,96796.06
